sensor_id;sensor_type;location;lat;lon;timestamp;temperature;humidity
63435;DHT22;68814;50.872;5.306;2023-04-25T00:02:39;8.10;83.80
63435;DHT22;68814;50.872;5.306;2023-04-25T00:05:09;8.10;84.40
63435;DHT22;68814;50.872;5.306;2023-04-25T00:07:55;8.10;84.30
63435;DHT22;68814;50.872;5.306;2023-04-25T00:10:41;8.10;84.80
63435;DHT22;68814;50.872;5.306;2023-04-25T00:13:34;8.10;84.80
63435;DHT22;68814;50.872;5.306;2023-04-25T00:16:20;8.10;85.00
63435;DHT22;68814;50.872;5.306;2023-04-25T00:18:46;8.10;84.70
63435;DHT22;68814;50.872;5.306;2023-04-25T00:21:33;8.10;85.30
63435;DHT22;68814;50.872;5.306;2023-04-25T00:24:20;8.00;85.40
63435;DHT22;68814;50.872;5.306;2023-04-25T00:53:44;7.90;87.20
63435;DHT22;68814;50.872;5.306;2023-04-25T00:57:10;7.90;87.10
63435;DHT22;68814;50.872;5.306;2023-04-25T01:00:00;7.90;87.70
63435;DHT22;68814;50.872;5.306;2023-04-25T01:03:06;7.90;88.20
63435;DHT22;68814;50.872;5.306;2023-04-25T01:06:32;7.90;87.80
63435;DHT22;68814;50.872;5.306;2023-04-25T01:09:20;7.90;88.10
63435;DHT22;68814;50.872;5.306;2023-04-25T01:12:26;7.90;87.70
63435;DHT22;68814;50.872;5.306;2023-04-25T01:15:32;7.80;88.00
63435;DHT22;68814;50.872;5.306;2023-04-25T01:18:30;7.80;87.40
63435;DHT22;68814;50.872;5.306;2023-04-25T01:21:43;7.80;87.90
63435;DHT22;68814;50.872;5.306;2023-04-25T01:24:38;7.80;87.50
63435;DHT22;68814;50.872;5.306;2023-04-25T01:27:29;7.80;87.60
63435;DHT22;68814;50.872;5.306;2023-04-25T01:29:56;7.80;87.30
63435;DHT22;68814;50.872;5.306;2023-04-25T01:33:03;7.80;88.00
63435;DHT22;68814;50.872;5.306;2023-04-25T01:36:18;7.80;87.50
63435;DHT22;68814;50.872;5.306;2023-04-25T01:39:29;7.80;87.70
63435;DHT22;68814;50.872;5.306;2023-04-25T01:42:39;7.70;88.10
63435;DHT22;68814;50.872;5.306;2023-04-25T01:46:02;7.70;89.20
63435;DHT22;68814;50.872;5.306;2023-04-25T01:48:29;7.70;88.90
63435;DHT22;68814;50.872;5.306;2023-04-25T01:51:20;7.70;88.60
63435;DHT22;68814;50.872;5.306;2023-04-25T01:57:56;7.70;89.70
63435;DHT22;68814;50.872;5.306;2023-04-25T02:01:07;7.70;89.50
63435;DHT22;68814;50.872;5.306;2023-04-25T02:04:19;7.60;89.90
63435;DHT22;68814;50.872;5.306;2023-04-25T02:07:31;7.60;89.90
63435;DHT22;68814;50.872;5.306;2023-04-25T02:10:39;7.60;89.90
63435;DHT22;68814;50.872;5.306;2023-04-25T02:13:49;7.60;90.00
63435;DHT22;68814;50.872;5.306;2023-04-25T02:17:21;7.60;90.40
63435;DHT22;68814;50.872;5.306;2023-04-25T02:20:13;7.60;90.40
63435;DHT22;68814;50.872;5.306;2023-04-25T02:23:21;7.50;90.20
63435;DHT22;68814;50.872;5.306;2023-04-25T02:25:50;7.50;90.30
63435;DHT22;68814;50.872;5.306;2023-04-25T02:28:39;7.50;90.30
63435;DHT22;68814;50.872;5.306;2023-04-25T02:31:09;7.50;90.40
63435;DHT22;68814;50.872;5.306;2023-04-25T02:41:29;7.50;90.70
63435;DHT22;68814;50.872;5.306;2023-04-25T02:44:40;7.50;90.50
63435;DHT22;68814;50.872;5.306;2023-04-25T02:48:11;7.50;90.70
63435;DHT22;68814;50.872;5.306;2023-04-25T02:50:44;7.50;91.10
63435;DHT22;68814;50.872;5.306;2023-04-25T02:53:31;7.50;91.10
63435;DHT22;68814;50.872;5.306;2023-04-25T02:56:04;7.50;91.20
63435;DHT22;68814;50.872;5.306;2023-04-25T02:59:17;7.40;91.30
63435;DHT22;68814;50.872;5.306;2023-04-25T03:02:10;7.40;91.10
63435;DHT22;68814;50.872;5.306;2023-04-25T03:04:38;7.40;91.40
63435;DHT22;68814;50.872;5.306;2023-04-25T03:07:29;7.40;91.20
63435;DHT22;68814;50.872;5.306;2023-04-25T03:10:43;7.40;91.10
63435;DHT22;68814;50.872;5.306;2023-04-25T03:13:54;7.40;91.30
63435;DHT22;68814;50.872;5.306;2023-04-25T03:17:05;7.40;91.20
63435;DHT22;68814;50.872;5.306;2023-04-25T03:20:19;7.30;91.20
63435;DHT22;68814;50.872;5.306;2023-04-25T03:22:52;7.30;91.30
63435;DHT22;68814;50.872;5.306;2023-04-25T03:25:39;7.30;91.60
63435;DHT22;68814;50.872;5.306;2023-04-25T03:28:06;7.30;91.60
63435;DHT22;68814;50.872;5.306;2023-04-25T03:30:37;7.30;91.70
63435;DHT22;68814;50.872;5.306;2023-04-25T03:33:03;7.20;91.80
63435;DHT22;68814;50.872;5.306;2023-04-25T03:35:52;7.30;91.90
63435;DHT22;68814;50.872;5.306;2023-04-25T03:38:18;7.30;92.40
63435;DHT22;68814;50.872;5.306;2023-04-25T03:40:45;7.30;92.40
63435;DHT22;68814;50.872;5.306;2023-04-25T03:43:11;7.30;92.20
63435;DHT22;68814;50.872;5.306;2023-04-25T03:45:37;7.30;92.10
63435;DHT22;68814;50.872;5.306;2023-04-25T03:48:07;7.30;92.10
63435;DHT22;68814;50.872;5.306;2023-04-25T03:50:56;7.30;92.10
63435;DHT22;68814;50.872;5.306;2023-04-25T03:53:29;7.20;91.80
63435;DHT22;68814;50.872;5.306;2023-04-25T03:56:39;7.20;91.80
63435;DHT22;68814;50.872;5.306;2023-04-25T03:59:27;7.20;92.10
63435;DHT22;68814;50.872;5.306;2023-04-25T04:01:53;7.20;92.10
63435;DHT22;68814;50.872;5.306;2023-04-25T04:05:05;7.20;92.00
63435;DHT22;68814;50.872;5.306;2023-04-25T04:07:52;7.20;92.00
63435;DHT22;68814;50.872;5.306;2023-04-25T04:10:37;7.20;92.00
63435;DHT22;68814;50.872;5.306;2023-04-25T04:13:27;7.20;92.00
63435;DHT22;68814;50.872;5.306;2023-04-25T04:16:16;7.20;92.00
63435;DHT22;68814;50.872;5.306;2023-04-25T04:19:22;7.20;92.40
63435;DHT22;68814;50.872;5.306;2023-04-25T04:22:14;7.20;92.40
63435;DHT22;68814;50.872;5.306;2023-04-25T04:25:22;7.20;92.50
63435;DHT22;68814;50.872;5.306;2023-04-25T04:28:08;7.20;92.60
63435;DHT22;68814;50.872;5.306;2023-04-25T04:31:17;7.20;92.30
63435;DHT22;68814;50.872;5.306;2023-04-25T04:34:25;7.10;92.10
63435;DHT22;68814;50.872;5.306;2023-04-25T04:36:55;7.00;91.70
63435;DHT22;68814;50.872;5.306;2023-04-25T04:39:21;7.00;92.00
63435;DHT22;68814;50.872;5.306;2023-04-25T04:42:08;7.00;91.20
63435;DHT22;68814;50.872;5.306;2023-04-25T04:44:34;7.00;90.90
63435;DHT22;68814;50.872;5.306;2023-04-25T04:47:01;6.90;91.20
63435;DHT22;68814;50.872;5.306;2023-04-25T04:49:32;7.00;90.70
63435;DHT22;68814;50.872;5.306;2023-04-25T04:59:04;6.90;91.10
63435;DHT22;68814;50.872;5.306;2023-04-25T05:01:36;6.90;90.70
63435;DHT22;68814;50.872;5.306;2023-04-25T05:04:23;7.00;91.50
63435;DHT22;68814;50.872;5.306;2023-04-25T05:07:13;6.90;90.40
63435;DHT22;68814;50.872;5.306;2023-04-25T05:09:40;6.90;90.60
63435;DHT22;68814;50.872;5.306;2023-04-25T05:18:51;7.00;90.80
63435;DHT22;68814;50.872;5.306;2023-04-25T05:21:20;7.00;90.60
63435;DHT22;68814;50.872;5.306;2023-04-25T05:26:42;7.00;90.60
63435;DHT22;68814;50.872;5.306;2023-04-25T05:32:25;7.00;91.20
63435;DHT22;68814;50.872;5.306;2023-04-25T05:35:18;7.00;91.10
63435;DHT22;68814;50.872;5.306;2023-04-25T05:44:07;7.10;91.10
63435;DHT22;68814;50.872;5.306;2023-04-25T05:53:05;7.30;90.70
63435;DHT22;68814;50.872;5.306;2023-04-25T05:55:53;7.30;90.40
63435;DHT22;68814;50.872;5.306;2023-04-25T05:59:06;7.40;91.50
63435;DHT22;68814;50.872;5.306;2023-04-25T06:01:32;7.50;90.70
63435;DHT22;68814;50.872;5.306;2023-04-25T06:04:02;7.50;90.90
63435;DHT22;68814;50.872;5.306;2023-04-25T06:06:32;7.50;89.50
63435;DHT22;68814;50.872;5.306;2023-04-25T06:09:00;7.50;89.40
63435;DHT22;68814;50.872;5.306;2023-04-25T06:11:27;7.50;90.40
63435;DHT22;68814;50.872;5.306;2023-04-25T06:13:58;7.60;90.30
63435;DHT22;68814;50.872;5.306;2023-04-25T06:16:34;7.60;90.60
63435;DHT22;68814;50.872;5.306;2023-04-25T06:19:01;7.70;90.90
63435;DHT22;68814;50.872;5.306;2023-04-25T06:21:26;7.80;89.30
63435;DHT22;68814;50.872;5.306;2023-04-25T06:24:12;7.70;87.80
63435;DHT22;68814;50.872;5.306;2023-04-25T06:26:57;7.80;88.60
63435;DHT22;68814;50.872;5.306;2023-04-25T06:30:29;7.80;87.20
63435;DHT22;68814;50.872;5.306;2023-04-25T06:33:41;7.80;87.70
63435;DHT22;68814;50.872;5.306;2023-04-25T07:00:03;8.00;86.00
63435;DHT22;68814;50.872;5.306;2023-04-25T07:02:31;8.00;87.30
63435;DHT22;68814;50.872;5.306;2023-04-25T07:04:57;8.10;87.50
63435;DHT22;68814;50.872;5.306;2023-04-25T07:07:26;8.10;86.80
63435;DHT22;68814;50.872;5.306;2023-04-25T07:09:55;8.10;87.40
63435;DHT22;68814;50.872;5.306;2023-04-25T07:12:43;8.10;87.80
63435;DHT22;68814;50.872;5.306;2023-04-25T07:15:30;8.20;86.80
63435;DHT22;68814;50.872;5.306;2023-04-25T07:17:56;8.20;86.80
63435;DHT22;68814;50.872;5.306;2023-04-25T07:23:55;8.40;85.90
63435;DHT22;68814;50.872;5.306;2023-04-25T07:27:08;8.50;85.40
63435;DHT22;68814;50.872;5.306;2023-04-25T07:29:54;8.70;85.70
63435;DHT22;68814;50.872;5.306;2023-04-25T07:32:25;8.80;87.00
63435;DHT22;68814;50.872;5.306;2023-04-25T07:37:44;9.00;85.00
63435;DHT22;68814;50.872;5.306;2023-04-25T07:40:11;9.10;84.40
63435;DHT22;68814;50.872;5.306;2023-04-25T07:42:57;9.20;84.60
63435;DHT22;68814;50.872;5.306;2023-04-25T07:45:46;9.30;80.70
63435;DHT22;68814;50.872;5.306;2023-04-25T07:55:26;9.40;82.10
63435;DHT22;68814;50.872;5.306;2023-04-25T07:58:12;9.60;80.80
63435;DHT22;68814;50.872;5.306;2023-04-25T08:01:19;9.70;79.50
63435;DHT22;68814;50.872;5.306;2023-04-25T08:03:48;9.70;74.60
63435;DHT22;68814;50.872;5.306;2023-04-25T08:06:16;9.60;77.70
63435;DHT22;68814;50.872;5.306;2023-04-25T08:08:45;9.40;77.30
63435;DHT22;68814;50.872;5.306;2023-04-25T08:11:37;9.40;77.80
63435;DHT22;68814;50.872;5.306;2023-04-25T08:14:05;9.40;75.50
63435;DHT22;68814;50.872;5.306;2023-04-25T08:16:53;9.40;79.00
63435;DHT22;68814;50.872;5.306;2023-04-25T08:19:24;9.50;78.80
63435;DHT22;68814;50.872;5.306;2023-04-25T08:21:54;9.40;75.60
63435;DHT22;68814;50.872;5.306;2023-04-25T08:25:06;9.40;74.90
63435;DHT22;68814;50.872;5.306;2023-04-25T08:27:35;9.40;74.90
63435;DHT22;68814;50.872;5.306;2023-04-25T08:30:08;9.50;74.60
63435;DHT22;68814;50.872;5.306;2023-04-25T08:32:57;9.50;72.50
63435;DHT22;68814;50.872;5.306;2023-04-25T08:35:24;9.70;74.30
63435;DHT22;68814;50.872;5.306;2023-04-25T08:37:52;10.00;71.80
63435;DHT22;68814;50.872;5.306;2023-04-25T08:40:19;10.20;73.00
63435;DHT22;68814;50.872;5.306;2023-04-25T08:43:13;10.40;70.00
63435;DHT22;68814;50.872;5.306;2023-04-25T08:46:17;10.60;66.80
63435;DHT22;68814;50.872;5.306;2023-04-25T08:49:08;10.50;66.90
63435;DHT22;68814;50.872;5.306;2023-04-25T08:51:45;10.40;64.90
63435;DHT22;68814;50.872;5.306;2023-04-25T08:54:35;10.20;65.10
63435;DHT22;68814;50.872;5.306;2023-04-25T08:57:06;10.00;67.00
63435;DHT22;68814;50.872;5.306;2023-04-25T09:00:14;9.90;68.90
63435;DHT22;68814;50.872;5.306;2023-04-25T09:03:06;9.80;69.40
63435;DHT22;68814;50.872;5.306;2023-04-25T09:06:17;9.80;71.10
63435;DHT22;68814;50.872;5.306;2023-04-25T09:09:11;9.80;70.60
63435;DHT22;68814;50.872;5.306;2023-04-25T09:12:08;9.60;69.80
63435;DHT22;68814;50.872;5.306;2023-04-25T09:15:14;9.50;70.70
63435;DHT22;68814;50.872;5.306;2023-04-25T09:17:41;9.40;69.10
63435;DHT22;68814;50.872;5.306;2023-04-25T09:20:12;9.40;70.50
63435;DHT22;68814;50.872;5.306;2023-04-25T09:22:38;9.40;63.80
63435;DHT22;68814;50.872;5.306;2023-04-25T09:25:09;9.40;63.40
63435;DHT22;68814;50.872;5.306;2023-04-25T09:43:49;10.40;61.90
63435;DHT22;68814;50.872;5.306;2023-04-25T09:49:06;10.90;62.70
63435;DHT22;68814;50.872;5.306;2023-04-25T09:51:42;11.20;64.60
63435;DHT22;68814;50.872;5.306;2023-04-25T09:54:28;11.70;60.10
63435;DHT22;68814;50.872;5.306;2023-04-25T09:57:11;12.00;58.70
63435;DHT22;68814;50.872;5.306;2023-04-25T09:59:43;12.20;59.20
63435;DHT22;68814;50.872;5.306;2023-04-25T10:02:30;12.60;58.80
63435;DHT22;68814;50.872;5.306;2023-04-25T10:05:17;13.10;56.40
63435;DHT22;68814;50.872;5.306;2023-04-25T10:07:45;13.60;61.30
63435;DHT22;68814;50.872;5.306;2023-04-25T10:14:11;13.40;52.10
63435;DHT22;68814;50.872;5.306;2023-04-25T10:16:58;13.10;53.20
63435;DHT22;68814;50.872;5.306;2023-04-25T10:22:35;13.10;55.70
63435;DHT22;68814;50.872;5.306;2023-04-25T10:25:05;12.90;55.80
63435;DHT22;68814;50.872;5.306;2023-04-25T10:38:16;12.20;57.50
63435;DHT22;68814;50.872;5.306;2023-04-25T10:41:06;12.00;54.40
63435;DHT22;68814;50.872;5.306;2023-04-25T10:46:29;11.50;62.00
63435;DHT22;68814;50.872;5.306;2023-04-25T10:48:59;11.60;63.40
63435;DHT22;68814;50.872;5.306;2023-04-25T10:51:32;11.80;64.50
63435;DHT22;68814;50.872;5.306;2023-04-25T10:54:07;12.20;62.90
63435;DHT22;68814;50.872;5.306;2023-04-25T10:59:22;12.00;59.50
63435;DHT22;68814;50.872;5.306;2023-04-25T11:01:52;12.30;60.50
63435;DHT22;68814;50.872;5.306;2023-04-25T11:04:32;12.70;58.60
63435;DHT22;68814;50.872;5.306;2023-04-25T11:09:33;12.70;56.50
63435;DHT22;68814;50.872;5.306;2023-04-25T11:11:59;12.90;54.70
63435;DHT22;68814;50.872;5.306;2023-04-25T11:14:26;12.90;54.10
63435;DHT22;68814;50.872;5.306;2023-04-25T11:16:58;12.90;54.50
63435;DHT22;68814;50.872;5.306;2023-04-25T11:19:25;13.30;54.10
63435;DHT22;68814;50.872;5.306;2023-04-25T11:21:54;13.40;50.40
63435;DHT22;68814;50.872;5.306;2023-04-25T11:24:28;13.80;51.10
63435;DHT22;68814;50.872;5.306;2023-04-25T11:26:54;14.00;51.00
63435;DHT22;68814;50.872;5.306;2023-04-25T11:29:26;14.40;56.70
63435;DHT22;68814;50.872;5.306;2023-04-25T11:31:52;15.20;54.30
63435;DHT22;68814;50.872;5.306;2023-04-25T11:34:19;16.10;49.00
63435;DHT22;68814;50.872;5.306;2023-04-25T11:36:45;16.80;47.50
63435;DHT22;68814;50.872;5.306;2023-04-25T11:39:12;17.20;47.40
63435;DHT22;68814;50.872;5.306;2023-04-25T11:41:38;17.30;42.10
63435;DHT22;68814;50.872;5.306;2023-04-25T11:44:05;17.30;41.90
63435;DHT22;68814;50.872;5.306;2023-04-25T11:46:51;17.10;45.20
63435;DHT22;68814;50.872;5.306;2023-04-25T11:49:19;16.90;44.40
63435;DHT22;68814;50.872;5.306;2023-04-25T11:52:10;17.00;45.60
63435;DHT22;68814;50.872;5.306;2023-04-25T11:54:39;17.20;44.70
63435;DHT22;68814;50.872;5.306;2023-04-25T11:57:06;17.90;46.40
63435;DHT22;68814;50.872;5.306;2023-04-25T11:59:32;18.80;46.10
63435;DHT22;68814;50.872;5.306;2023-04-25T12:02:02;18.80;41.60
63435;DHT22;68814;50.872;5.306;2023-04-25T12:04:30;18.60;43.40
63435;DHT22;68814;50.872;5.306;2023-04-25T12:07:03;18.50;39.90
63435;DHT22;68814;50.872;5.306;2023-04-25T12:09:33;18.40;36.50
63435;DHT22;68814;50.872;5.306;2023-04-25T12:12:00;17.90;36.80
63435;DHT22;68814;50.872;5.306;2023-04-25T12:14:33;18.00;43.70
63435;DHT22;68814;50.872;5.306;2023-04-25T12:17:01;18.30;40.60
63435;DHT22;68814;50.872;5.306;2023-04-25T12:22:25;17.10;40.40
63435;DHT22;68814;50.872;5.306;2023-04-25T12:30:23;16.30;46.50
63435;DHT22;68814;50.872;5.306;2023-04-25T12:35:57;15.50;47.40
63435;DHT22;68814;50.872;5.306;2023-04-25T12:38:27;14.70;50.80
63435;DHT22;68814;50.872;5.306;2023-04-25T12:40:54;14.10;52.50
63435;DHT22;68814;50.872;5.306;2023-04-25T12:43:39;13.70;54.50
63435;DHT22;68814;50.872;5.306;2023-04-25T12:46:30;13.40;54.20
63435;DHT22;68814;50.872;5.306;2023-04-25T12:48:56;13.30;54.60
63435;DHT22;68814;50.872;5.306;2023-04-25T12:51:27;13.30;56.70
63435;DHT22;68814;50.872;5.306;2023-04-25T12:53:53;13.30;55.20
63435;DHT22;68814;50.872;5.306;2023-04-25T12:56:26;13.40;53.40
63435;DHT22;68814;50.872;5.306;2023-04-25T12:59:12;13.40;53.30
63435;DHT22;68814;50.872;5.306;2023-04-25T13:01:38;13.60;53.60
63435;DHT22;68814;50.872;5.306;2023-04-25T13:06:35;14.60;52.30
63435;DHT22;68814;50.872;5.306;2023-04-25T13:09:01;15.40;51.80
63435;DHT22;68814;50.872;5.306;2023-04-25T13:11:27;15.90;47.50
63435;DHT22;68814;50.872;5.306;2023-04-25T13:16:27;16.90;50.10
63435;DHT22;68814;50.872;5.306;2023-04-25T13:19:08;17.70;44.70
63435;DHT22;68814;50.872;5.306;2023-04-25T13:21:41;17.90;40.90
63435;DHT22;68814;50.872;5.306;2023-04-25T13:27:46;17.00;43.50
63435;DHT22;68814;50.872;5.306;2023-04-25T13:30:25;16.40;44.30
63435;DHT22;68814;50.872;5.306;2023-04-25T13:33:28;16.20;45.10
63435;DHT22;68814;50.872;5.306;2023-04-25T13:35:57;15.90;50.10
63435;DHT22;68814;50.872;5.306;2023-04-25T13:38:24;15.70;46.30
63435;DHT22;68814;50.872;5.306;2023-04-25T13:40:51;15.20;48.70
63435;DHT22;68814;50.872;5.306;2023-04-25T13:43:20;14.70;49.60
63435;DHT22;68814;50.872;5.306;2023-04-25T13:45:50;14.40;51.00
63435;DHT22;68814;50.872;5.306;2023-04-25T13:48:17;14.10;51.10
63435;DHT22;68814;50.872;5.306;2023-04-25T13:50:46;13.90;53.00
63435;DHT22;68814;50.872;5.306;2023-04-25T13:53:18;13.90;51.80
63435;DHT22;68814;50.872;5.306;2023-04-25T13:55:44;13.80;52.50
63435;DHT22;68814;50.872;5.306;2023-04-25T13:58:10;13.80;53.10
63435;DHT22;68814;50.872;5.306;2023-04-25T14:00:38;13.90;52.50
63435;DHT22;68814;50.872;5.306;2023-04-25T14:03:48;14.60;50.60
63435;DHT22;68814;50.872;5.306;2023-04-25T14:06:14;15.80;50.20
63435;DHT22;68814;50.872;5.306;2023-04-25T14:08:59;16.60;46.20
63435;DHT22;68814;50.872;5.306;2023-04-25T14:11:29;17.40;44.00
63435;DHT22;68814;50.872;5.306;2023-04-25T14:14:00;18.00;45.10
63435;DHT22;68814;50.872;5.306;2023-04-25T14:16:31;18.20;43.00
63435;DHT22;68814;50.872;5.306;2023-04-25T14:18:58;18.70;41.20
63435;DHT22;68814;50.872;5.306;2023-04-25T14:21:28;18.90;41.20
63435;DHT22;68814;50.872;5.306;2023-04-25T14:23:54;19.10;42.80
63435;DHT22;68814;50.872;5.306;2023-04-25T14:26:20;19.20;39.10
63435;DHT22;68814;50.872;5.306;2023-04-25T14:28:46;19.20;39.70
63435;DHT22;68814;50.872;5.306;2023-04-25T14:31:32;19.20;38.80
63435;DHT22;68814;50.872;5.306;2023-04-25T14:33:57;19.60;38.60
63435;DHT22;68814;50.872;5.306;2023-04-25T14:36:23;19.70;38.00
63435;DHT22;68814;50.872;5.306;2023-04-25T14:38:52;19.20;33.80
63435;DHT22;68814;50.872;5.306;2023-04-25T14:41:18;19.00;34.90
63435;DHT22;68814;50.872;5.306;2023-04-25T14:53:49;20.00;37.60
63435;DHT22;68814;50.872;5.306;2023-04-25T14:56:19;18.90;37.90
63435;DHT22;68814;50.872;5.306;2023-04-25T14:58:46;18.30;40.80
63435;DHT22;68814;50.872;5.306;2023-04-25T15:01:12;18.00;42.50
63435;DHT22;68814;50.872;5.306;2023-04-25T15:03:39;17.60;40.40
63435;DHT22;68814;50.872;5.306;2023-04-25T15:06:05;17.30;43.70
63435;DHT22;68814;50.872;5.306;2023-04-25T15:08:34;17.30;39.30
63435;DHT22;68814;50.872;5.306;2023-04-25T15:11:00;16.80;42.80
63435;DHT22;68814;50.872;5.306;2023-04-25T15:13:28;16.50;42.90
63435;DHT22;68814;50.872;5.306;2023-04-25T15:15:53;16.30;43.30
63435;DHT22;68814;50.872;5.306;2023-04-25T15:18:23;16.20;40.90
63435;DHT22;68814;50.872;5.306;2023-04-25T15:20:52;15.80;43.00
63435;DHT22;68814;50.872;5.306;2023-04-25T15:23:41;15.70;46.90
63435;DHT22;68814;50.872;5.306;2023-04-25T15:26:06;15.60;43.00
63435;DHT22;68814;50.872;5.306;2023-04-25T15:29:01;15.70;46.30
63435;DHT22;68814;50.872;5.306;2023-04-25T15:31:53;17.20;44.80
63435;DHT22;68814;50.872;5.306;2023-04-25T15:34:52;18.30;41.50
63435;DHT22;68814;50.872;5.306;2023-04-25T15:37:40;18.40;40.60
63435;DHT22;68814;50.872;5.306;2023-04-25T15:43:14;17.50;43.70
63435;DHT22;68814;50.872;5.306;2023-04-25T15:46:12;17.80;44.30
63435;DHT22;68814;50.872;5.306;2023-04-25T15:49:10;18.40;40.60
63435;DHT22;68814;50.872;5.306;2023-04-25T15:58:04;17.30;44.40
63435;DHT22;68814;50.872;5.306;2023-04-25T16:14:04;15.20;45.50
63435;DHT22;68814;50.872;5.306;2023-04-25T16:17:26;14.70;46.40
63435;DHT22;68814;50.872;5.306;2023-04-25T16:19:58;14.40;49.20
63435;DHT22;68814;50.872;5.306;2023-04-25T16:22:44;14.20;49.30
63435;DHT22;68814;50.872;5.306;2023-04-25T16:25:12;14.10;48.90
63435;DHT22;68814;50.872;5.306;2023-04-25T16:27:39;13.80;50.30
63435;DHT22;68814;50.872;5.306;2023-04-25T16:30:25;13.60;50.10
63435;DHT22;68814;50.872;5.306;2023-04-25T16:32:54;13.50;50.90
63435;DHT22;68814;50.872;5.306;2023-04-25T16:35:44;13.40;51.20
63435;DHT22;68814;50.872;5.306;2023-04-25T16:38:18;13.40;51.10
63435;DHT22;68814;50.872;5.306;2023-04-25T16:54:42;13.90;47.50
63435;DHT22;68814;50.872;5.306;2023-04-25T16:57:34;14.80;46.80
63435;DHT22;68814;50.872;5.306;2023-04-25T17:00:03;15.50;45.80
63435;DHT22;68814;50.872;5.306;2023-04-25T17:02:29;15.10;44.50
63435;DHT22;68814;50.872;5.306;2023-04-25T17:04:55;14.40;46.20
63435;DHT22;68814;50.872;5.306;2023-04-25T17:07:21;13.90;47.90
63435;DHT22;68814;50.872;5.306;2023-04-25T17:09:49;13.70;48.60
63435;DHT22;68814;50.872;5.306;2023-04-25T17:12:16;13.50;47.70
63435;DHT22;68814;50.872;5.306;2023-04-25T17:14:42;13.40;48.50
63435;DHT22;68814;50.872;5.306;2023-04-25T17:17:08;13.60;48.30
63435;DHT22;68814;50.872;5.306;2023-04-25T17:19:34;13.90;48.30
63435;DHT22;68814;50.872;5.306;2023-04-25T17:25:27;14.10;46.90
63435;DHT22;68814;50.872;5.306;2023-04-25T17:27:52;14.00;46.70
63435;DHT22;68814;50.872;5.306;2023-04-25T17:30:18;13.70;48.90
63435;DHT22;68814;50.872;5.306;2023-04-25T17:32:44;13.40;47.80
63435;DHT22;68814;50.872;5.306;2023-04-25T17:35:10;13.10;49.00
63435;DHT22;68814;50.872;5.306;2023-04-25T17:40:58;13.40;48.80
63435;DHT22;68814;50.872;5.306;2023-04-25T17:43:24;14.00;48.60
63435;DHT22;68814;50.872;5.306;2023-04-25T17:45:50;14.30;46.50
63435;DHT22;68814;50.872;5.306;2023-04-25T17:48:16;14.40;47.20
63435;DHT22;68814;50.872;5.306;2023-04-25T17:54:22;14.30;46.30
63435;DHT22;68814;50.872;5.306;2023-04-25T17:56:49;14.20;46.70
63435;DHT22;68814;50.872;5.306;2023-04-25T17:59:16;14.30;46.60
63435;DHT22;68814;50.872;5.306;2023-04-25T18:01:42;14.40;45.80
63435;DHT22;68814;50.872;5.306;2023-04-25T18:04:08;14.40;46.80
63435;DHT22;68814;50.872;5.306;2023-04-25T18:13:18;13.00;50.50
63435;DHT22;68814;50.872;5.306;2023-04-25T18:15:51;12.70;51.30
63435;DHT22;68814;50.872;5.306;2023-04-25T18:18:23;12.70;52.10
63435;DHT22;68814;50.872;5.306;2023-04-25T18:20:52;12.70;52.50
63435;DHT22;68814;50.872;5.306;2023-04-25T18:23:24;12.50;53.80
63435;DHT22;68814;50.872;5.306;2023-04-25T18:25:51;12.20;51.20
63435;DHT22;68814;50.872;5.306;2023-04-25T18:28:18;12.00;53.10
63435;DHT22;68814;50.872;5.306;2023-04-25T18:30:44;11.80;54.50
63435;DHT22;68814;50.872;5.306;2023-04-25T18:33:11;11.60;55.70
63435;DHT22;68814;50.872;5.306;2023-04-25T18:35:37;11.50;55.90
63435;DHT22;68814;50.872;5.306;2023-04-25T18:38:03;11.40;57.60
63435;DHT22;68814;50.872;5.306;2023-04-25T18:40:29;11.20;57.50
63435;DHT22;68814;50.872;5.306;2023-04-25T18:42:56;11.00;56.90
63435;DHT22;68814;50.872;5.306;2023-04-25T18:48:43;10.60;58.40
63435;DHT22;68814;50.872;5.306;2023-04-25T18:51:09;10.40;60.10
63435;DHT22;68814;50.872;5.306;2023-04-25T18:53:35;10.30;59.10
63435;DHT22;68814;50.872;5.306;2023-04-25T18:56:01;10.20;59.50
63435;DHT22;68814;50.872;5.306;2023-04-25T18:58:27;10.00;59.40
63435;DHT22;68814;50.872;5.306;2023-04-25T19:01:13;9.90;60.80
63435;DHT22;68814;50.872;5.306;2023-04-25T19:03:41;9.70;60.60
63435;DHT22;68814;50.872;5.306;2023-04-25T19:06:07;9.60;62.20
63435;DHT22;68814;50.872;5.306;2023-04-25T19:08:33;9.40;63.60
63435;DHT22;68814;50.872;5.306;2023-04-25T19:10:59;9.30;64.00
63435;DHT22;68814;50.872;5.306;2023-04-25T19:13:26;9.30;64.00
63435;DHT22;68814;50.872;5.306;2023-04-25T19:15:56;9.20;64.40
63435;DHT22;68814;50.872;5.306;2023-04-25T19:18:23;9.10;63.10
63435;DHT22;68814;50.872;5.306;2023-04-25T19:20:50;9.00;65.10
63435;DHT22;68814;50.872;5.306;2023-04-25T19:23:18;8.90;65.30
63435;DHT22;68814;50.872;5.306;2023-04-25T19:26:18;8.80;66.60
63435;DHT22;68814;50.872;5.306;2023-04-25T19:29:01;8.80;66.50
63435;DHT22;68814;50.872;5.306;2023-04-25T19:31:27;8.70;66.30
63435;DHT22;68814;50.872;5.306;2023-04-25T19:33:52;8.60;67.40
63435;DHT22;68814;50.872;5.306;2023-04-25T19:36:18;8.50;67.60
63435;DHT22;68814;50.872;5.306;2023-04-25T19:38:49;8.40;67.40
63435;DHT22;68814;50.872;5.306;2023-04-25T19:41:15;8.30;68.10
63435;DHT22;68814;50.872;5.306;2023-04-25T19:43:40;8.30;66.90
63435;DHT22;68814;50.872;5.306;2023-04-25T19:46:06;8.20;67.80
63435;DHT22;68814;50.872;5.306;2023-04-25T19:48:32;8.20;67.70
63435;DHT22;68814;50.872;5.306;2023-04-25T19:50:58;8.10;67.80
63435;DHT22;68814;50.872;5.306;2023-04-25T19:53:24;8.00;68.20
63435;DHT22;68814;50.872;5.306;2023-04-25T19:55:51;7.90;70.20
63435;DHT22;68814;50.872;5.306;2023-04-25T19:58:16;7.90;70.70
63435;DHT22;68814;50.872;5.306;2023-04-25T20:00:42;7.80;71.00
63435;DHT22;68814;50.872;5.306;2023-04-25T20:03:08;7.70;72.10
63435;DHT22;68814;50.872;5.306;2023-04-25T20:05:35;7.60;71.20
63435;DHT22;68814;50.872;5.306;2023-04-25T20:08:00;7.50;73.60
63435;DHT22;68814;50.872;5.306;2023-04-25T20:10:27;7.40;73.90
63435;DHT22;68814;50.872;5.306;2023-04-25T20:12:52;7.30;74.80
63435;DHT22;68814;50.872;5.306;2023-04-25T20:15:18;7.20;75.30
63435;DHT22;68814;50.872;5.306;2023-04-25T20:17:44;7.10;75.50
63435;DHT22;68814;50.872;5.306;2023-04-25T20:20:11;6.90;76.50
63435;DHT22;68814;50.872;5.306;2023-04-25T20:22:37;6.90;77.10
63435;DHT22;68814;50.872;5.306;2023-04-25T20:25:06;6.80;78.10
63435;DHT22;68814;50.872;5.306;2023-04-25T20:27:33;6.70;79.20
63435;DHT22;68814;50.872;5.306;2023-04-25T20:29:58;6.70;79.10
63435;DHT22;68814;50.872;5.306;2023-04-25T20:32:29;6.60;78.90
63435;DHT22;68814;50.872;5.306;2023-04-25T20:35:01;6.50;79.00
63435;DHT22;68814;50.872;5.306;2023-04-25T20:47:33;6.20;80.50
63435;DHT22;68814;50.872;5.306;2023-04-25T20:49:59;6.10;81.20
63435;DHT22;68814;50.872;5.306;2023-04-25T20:52:28;6.00;81.30
63435;DHT22;68814;50.872;5.306;2023-04-25T20:54:53;6.00;83.00
63435;DHT22;68814;50.872;5.306;2023-04-25T21:10:46;5.40;85.00